LESO/EAS METAR and TAF weather

Enter ICAO airport designator
Station Type Date Time Source
LESO METAR 2019/04/25 18:00 UTC NOAA

LESO 251800Z 23013KT 200V280 CAVOK 18/04 Q1007


Station Type Date Time Source
LESO Decoded METAR 2019/04/25 18:00 UTC NOAA

San Sebastian / Fuenterrabia, Spain (LESO) 43-21N 001-48W 8M
Apr 25, 2019 - 02:00 PM EDT / 2019.04.25 1800 UTC
Wind: from the SW (230 degrees) at 15 MPH (13 KT) (direction variable):0
Visibility: greater than 7 mile(s):0
Temperature: 64 F (18 C)
Dew Point: 39 F (4 C)
Relative Humidity: 39%
Pressure (altimeter): 29.74 in. Hg (1007 hPa)
ob: LESO 251800Z 23013KT 200V280 CAVOK 18/04 Q1007
cycle: 18

Station Type Date Time Source
LESO TAF 2019/04/25 18:27 UTC NOAA

TAF LESO 251700Z 2518/2618 23012KT 9999 SCT040 TX15/2614Z TN09/2605Z
TEMPO 2518/2521 20016G30KT SCT030TCU PROB40
TEMPO 2521/2609 26018G32KT 4000 SHRA TS SCT020TCU SCT030CB
BECMG 2606/2610 29010KT PROB40
TEMPO 2609/2614 29018G30KT

Example: see airport list